Robles del Rio, California
Current Conditions -  °F | °C
As of 8:54 AM on Wednesday 26 Nov 2014 (Local Time) from KMRY Reporting Station
Clear Clear  
Wind Chill: 58°   Ceiling: Unl
Heat Index: 58°   Visibility: 10mi
Dew Point: 41°   Wind: 0mph
Humidity: 53%   Direction: NA
Pressure: 30.28"   Gusts: NA
Location:  36.407°N, 121.657°W
Report Text: KMRY 261654Z 00000KT 10SM CLR 14/05 A3028 RMK AO2 SLP265 T01440050
Loading
Personal Weather Stations






























Interactive Weather Map New forecast layout! Learn more

10-Day Weather Forecast

Advertisements
Track Severe Weather on mobile